Time;durP1;ratioP1;P1;durP2;ratioP2;P2;SDS_P1;SDS_P2;PMS_P1;PMS_P2;Temp;Humidity;BMP_temperature;BMP_pressure;BME280_temperature;BME280_humidity;BME280_pressure;Samples;Min_cycle;Max_cycle;Signal;HPM_P1;HPM_P2
2022/01/26 00:00:05;;;;;;;18.05;6.57;;;5.10;84.10;;;;;;4159814;28;20021;-85
2022/01/26 00:06:51;;;;;;;33.13;7.90;;;5.10;84.50;;;;;;4138316;28;20053;-84
2022/01/26 00:08:52;;;;;;;28.35;7.80;;;5.10;83.40;;;;;;4160034;28;20492;-85
2022/01/26 00:10:53;;;;;;;26.80;8.23;;;5.00;83.90;;;;;;4161148;28;20091;-83
2022/01/26 00:12:54;;;;;;;25.23;7.30;;;5.10;84.00;;;;;;4161352;28;20458;-84
2022/01/26 00:14:54;;;;;;;21.98;6.18;;;5.00;83.90;;;;;;4149450;28;20487;-84
2022/01/26 00:16:55;;;;;;;27.77;6.65;;;5.00;83.90;;;;;;4159766;28;20044;-84
2022/01/26 00:18:59;;;;;;;16.23;5.95;;;5.10;84.00;;;;;;4159225;28;20479;-84
2022/01/26 00:21:28;;;;;;;24.65;6.22;;;5.10;83.90;;;;;;4145341;28;20030;-85
2022/01/26 00:27:56;;;;;;;21.23;5.95;;;5.10;83.70;;;;;;4170197;28;20368;-85
2022/01/26 00:31:12;;;;;;;22.83;7.50;;;5.10;83.60;;;;;;4163639;28;20053;-85
2022/01/26 00:39:20;;;;;;;16.65;5.47;;;5.10;83.30;;;;;;4157730;28;20044;-85
2022/01/26 00:41:34;;;;;;;18.98;5.93;;;5.10;83.20;;;;;;4172566;28;20024;-84
2022/01/26 00:43:35;;;;;;;21.05;6.15;;;5.10;83.20;;;;;;4164120;28;20033;-84
2022/01/26 00:45:37;;;;;;;15.50;4.85;;;5.00;83.10;;;;;;4171891;28;20523;-84
2022/01/26 00:47:37;;;;;;;21.80;5.45;;;5.00;83.00;;;;;;4158503;28;20017;-85
2022/01/26 00:49:38;;;;;;;21.30;6.28;;;5.10;82.90;;;;;;4166068;28;20040;-85
2022/01/26 00:51:39;;;;;;;27.80;6.60;;;5.00;82.80;;;;;;4149901;28;20036;-85
2022/01/26 00:53:45;;;;;;;17.63;5.38;;;5.00;82.80;;;;;;4163794;28;20049;-85
2022/01/26 00:55:45;;;;;;;15.48;4.78;;;5.00;82.70;;;;;;4162998;28;20080;-84
2022/01/26 00:57:46;;;;;;;18.77;4.65;;;5.00;82.70;;;;;;4165819;28;20292;-85
2022/01/26 00:59:46;;;;;;;19.58;5.03;;;5.00;82.60;;;;;;4149142;28;20030;-85
2022/01/26 01:01:47;;;;;;;22.00;5.45;;;5.00;82.60;;;;;;4167442;28;20091;-84
2022/01/26 01:03:49;;;;;;;21.92;4.95;;;5.00;82.50;;;;;;4164779;28;20021;-85
2022/01/26 01:07:59;;;;;;;;;;;5.00;82.50;;;;;;4189627;28;20029;-85
2022/01/26 01:10:00;;;;;;;11.35;4.25;;;5.00;82.40;;;;;;4165191;28;19923;-85
2022/01/26 01:12:02;;;;;;;17.42;4.78;;;5.00;82.40;;;;;;4169509;28;20037;-84
2022/01/26 01:14:03;;;;;;;16.15;5.18;;;5.00;82.30;;;;;;4167224;28;20438;-84
2022/01/26 01:16:05;;;;;;;20.42;4.50;;;5.00;82.20;;;;;;4169347;28;20052;-86
2022/01/26 01:18:16;;;;;;;14.38;4.57;;;5.00;82.10;;;;;;4170701;28;20033;-86
2022/01/26 01:33:46;;;;;;;15.68;3.85;;;4.80;81.70;;;;;;4151845;28;20025;-84
2022/01/26 01:35:47;;;;;;;16.77;4.28;;;4.80;81.70;;;;;;4141598;28;20105;-84
2022/01/26 01:37:49;;;;;;;13.10;3.58;;;4.80;81.60;;;;;;4178384;28;20138;-84
2022/01/26 01:39:50;;;;;;;10.18;3.63;;;4.80;81.60;;;;;;4167962;28;20022;-84
2022/01/26 01:41:51;;;;;;;13.45;4.53;;;4.80;81.60;;;;;;4154626;28;20125;-85
2022/01/26 01:43:52;;;;;;;11.70;3.58;;;4.80;81.30;;;;;;4154384;28;20030;-85
2022/01/26 01:45:53;;;;;;;9.93;3.80;;;4.80;81.20;;;;;;4138015;28;20034;-85
2022/01/26 01:47:55;;;;;;;14.77;4.90;;;4.70;81.10;;;;;;4149137;28;20088;-86
2022/01/26 01:49:55;;;;;;;13.27;3.78;;;4.70;81.10;;;;;;4132974;28;20089;-85
2022/01/26 01:52:01;;;;;;;15.32;4.53;;;4.70;81.10;;;;;;4150836;28;20022;-84
2022/01/26 01:54:02;;;;;;;14.20;4.82;;;4.70;81.20;;;;;;4153520;28;20654;-84
2022/01/26 01:56:03;;;;;;;11.63;3.70;;;4.70;81.20;;;;;;4139855;28;20033;-84
2022/01/26 01:58:04;;;;;;;8.40;3.63;;;4.70;81.20;;;;;;4149154;28;20372;-85
2022/01/26 02:00:05;;;;;;;12.52;4.45;;;4.70;81.20;;;;;;4163047;28;20086;-84
2022/01/26 02:02:06;;;;;;;13.30;4.72;;;4.70;81.20;;;;;;4162532;28;20025;-84
2022/01/26 02:04:07;;;;;;;12.52;3.90;;;4.70;81.10;;;;;;4125961;28;20023;-84
2022/01/26 02:06:08;;;;;;;11.43;4.00;;;4.70;81.10;;;;;;4142757;28;20038;-84
2022/01/26 02:08:08;;;;;;;10.30;4.05;;;4.70;81.00;;;;;;4164838;28;20028;-84
2022/01/26 02:10:10;;;;;;;13.60;4.70;;;4.70;81.10;;;;;;4157236;28;20447;-84
2022/01/26 02:12:15;;;;;;;13.73;4.55;;;4.70;81.10;;;;;;4143371;28;20480;-84
2022/01/26 02:14:23;;;;;;;19.88;5.45;;;4.70;81.20;;;;;;4145776;28;20026;-83
2022/01/26 02:20:51;;;;;;;10.98;5.20;;;4.70;81.20;;;;;;4157860;28;20072;-85
2022/01/26 02:58:10;;;;;;;29.00;8.95;;;4.60;81.80;;;;;;4163457;28;20109;-86
2022/01/26 03:00:15;;;;;;;19.40;6.63;;;4.60;81.80;;;;;;4159956;28;20041;-86
2022/01/26 03:06:59;;;;;;;17.70;7.30;;;4.60;81.90;;;;;;4161822;28;20104;-87
2022/01/26 03:09:06;;;;;;;30.48;8.40;;;4.60;81.90;;;;;;4160135;28;20396;-87
2022/01/26 03:11:10;;;;;;;25.33;8.75;;;4.60;81.90;;;;;;4164234;28;20032;-87
2022/01/26 03:13:16;;;;;;;24.42;10.25;;;4.60;82.00;;;;;;4161803;28;20379;-87
2022/01/26 03:15:23;;;;;;;28.17;8.70;;;4.60;81.90;;;;;;4142319;28;20111;-87
2022/01/26 03:19:52;;;;;;;28.23;10.57;;;4.60;82.00;;;;;;4162201;28;20036;-87
2022/01/26 03:29:38;;;;;;;37.45;12.07;;;4.60;82.30;;;;;;4144022;28;20030;-87
2022/01/26 03:33:12;;;;;;;31.75;12.02;;;4.50;82.30;;;;;;4157353;28;20030;-87
2022/01/26 03:35:19;;;;;;;36.97;11.88;;;4.50;82.40;;;;;;4157514;28;20037;-87
2022/01/26 03:37:23;;;;;;;35.95;12.60;;;4.50;82.40;;;;;;4160950;28;20034;-85
2022/01/26 03:39:25;;;;;;;35.40;13.20;;;4.50;82.40;;;;;;4153410;28;20031;-87
2022/01/26 03:41:38;;;;;;;43.28;13.30;;;4.50;82.40;;;;;;4181804;28;20017;-87
2022/01/26 03:43:39;;;;;;;38.90;12.45;;;4.50;82.30;;;;;;4181077;28;20036;-87
2022/01/26 03:45:39;;;;;;;42.17;13.40;;;4.50;82.30;;;;;;4177059;28;20025;-87
2022/01/26 03:47:40;;;;;;;37.03;11.95;;;4.50;82.30;;;;;;4174460;28;20025;-87
2022/01/26 03:49:41;;;;;;;33.45;12.00;;;4.50;82.20;;;;;;4177878;28;20045;-87
2022/01/26 03:51:42;;;;;;;41.40;13.15;;;4.50;82.10;;;;;;4156700;28;20018;-85
2022/01/26 03:53:42;;;;;;;32.45;11.98;;;4.50;82.80;;;;;;4173551;28;20037;-85
2022/01/26 03:55:43;;;;;;;34.45;13.05;;;4.50;82.00;;;;;;4145119;28;20033;-85
2022/01/26 03:57:43;;;;;;;38.67;12.32;;;4.50;82.00;;;;;;4180165;28;20198;-86
2022/01/26 03:59:44;;;;;;;42.97;13.50;;;4.50;81.90;;;;;;4194996;28;20056;-86
2022/01/26 04:01:45;;;;;;;44.05;12.88;;;4.40;81.80;;;;;;4180138;28;20033;-84
2022/01/26 04:03:45;;;;;;;37.30;14.10;;;4.40;81.80;;;;;;4177051;28;20021;-84
2022/01/26 04:05:46;;;;;;;37.65;13.40;;;4.40;81.70;;;;;;4171597;28;20038;-86
2022/01/26 04:07:47;;;;;;;34.70;13.40;;;4.40;81.60;;;;;;4190190;28;20096;-85
2022/01/26 04:09:47;;;;;;;37.78;14.02;;;4.40;81.60;;;;;;4181275;28;21816;-86
2022/01/26 04:11:50;;;;;;;41.85;13.63;;;4.40;81.40;;;;;;4138072;28;20041;-86
2022/01/26 04:13:51;;;;;;;39.50;13.82;;;4.40;81.30;;;;;;4125660;28;20018;-86
2022/01/26 04:15:51;;;;;;;45.35;15.77;;;4.40;81.20;;;;;;4153034;28;20067;-85
2022/01/26 04:17:52;;;;;;;40.05;14.73;;;4.40;80.90;;;;;;4151759;28;20030;-86
2022/01/26 04:19:56;;;;;;;38.60;13.77;;;4.40;80.80;;;;;;4166619;28;20032;-86
2022/01/26 04:22:14;;;;;;;40.05;15.43;;;4.40;80.50;;;;;;4141528;28;20030;-87
2022/01/26 04:24:30;;;;;;;38.92;15.27;;;4.40;80.30;;;;;;4156275;28;20033;-86
2022/01/26 04:26:40;;;;;;;46.70;15.68;;;4.30;80.00;;;;;;4143587;28;20559;-86
2022/01/26 04:28:48;;;;;;;45.83;16.08;;;4.30;79.80;;;;;;4157179;28;20037;-86
2022/01/26 04:30:49;;;;;;;42.40;14.63;;;4.30;79.90;;;;;;4143983;28;20037;-86
2022/01/26 04:32:49;;;;;;;45.08;16.50;;;4.30;80.00;;;;;;4163838;28;20351;-85
2022/01/26 04:34:50;;;;;;;41.45;16.42;;;4.30;80.00;;;;;;4158349;28;20138;-85
2022/01/26 04:36:56;;;;;;;39.75;15.32;;;4.30;79.90;;;;;;4163583;28;20022;-85
2022/01/26 04:39:01;;;;;;;46.40;17.17;;;4.30;80.00;;;;;;4157847;28;20032;-85
2022/01/26 04:41:49;;;;;;;40.80;16.13;;;4.30;79.90;;;;;;4156882;28;20041;-86
2022/01/26 04:43:29;;;;;;;40.90;15.95;;;4.30;80.00;;;;;;4147194;28;20049;-86
2022/01/26 04:45:30;;;;;;;44.13;17.23;;;4.30;80.00;;;;;;4166142;28;20088;-86
2022/01/26 04:47:30;;;;;;;51.47;17.00;;;4.20;80.00;;;;;;4163028;28;20036;-87
2022/01/26 04:49:34;;;;;;;45.50;16.75;;;4.20;80.10;;;;;;4135228;28;20034;-86
2022/01/26 04:51:34;;;;;;;51.50;17.00;;;4.30;80.30;;;;;;4163149;28;20090;-86
2022/01/26 04:53:35;;;;;;;45.45;17.23;;;4.20;80.20;;;;;;4162757;28;20445;-86
2022/01/26 04:55:36;;;;;;;49.15;17.25;;;4.20;80.30;;;;;;4128816;28;20089;-86
2022/01/26 04:57:36;;;;;;;40.63;16.70;;;4.20;80.40;;;;;;4162417;28;20017;-87
2022/01/26 04:59:37;;;;;;;39.97;16.20;;;4.20;80.40;;;;;;4144327;28;20372;-86
2022/01/26 05:01:37;;;;;;;51.63;17.90;;;4.20;80.50;;;;;;4156703;28;20033;-86
2022/01/26 05:03:38;;;;;;;40.83;15.05;;;4.20;80.50;;;;;;4142749;28;20480;-83
2022/01/26 05:05:38;;;;;;;48.97;16.15;;;4.20;80.50;;;;;;4157930;28;20025;-83
2022/01/26 05:07:39;;;;;;;44.80;15.65;;;4.10;80.50;;;;;;4159286;28;20478;-83
2022/01/26 05:09:40;;;;;;;44.53;15.75;;;4.10;81.20;;;;;;4156556;28;20151;-83
2022/01/26 05:11:43;;;;;;;42.17;16.00;;;4.10;80.50;;;;;;4138253;28;20459;-83
2022/01/26 05:13:43;;;;;;;44.50;17.38;;;4.10;80.50;;;;;;4154387;28;20100;-83
2022/01/26 05:15:44;;;;;;;41.20;16.05;;;4.10;80.50;;;;;;4157682;28;20106;-83
2022/01/26 05:17:44;;;;;;;45.30;17.33;;;4.10;80.50;;;;;;4157143;28;20036;-84
2022/01/26 05:19:45;;;;;;;45.28;16.55;;;4.10;80.60;;;;;;4153027;28;20040;-84
2022/01/26 05:21:46;;;;;;;37.97;14.75;;;4.10;80.70;;;;;;4140687;28;20034;-85
2022/01/26 05:23:46;;;;;;;38.65;15.57;;;4.00;80.70;;;;;;4136076;28;20080;-83
2022/01/26 05:25:47;;;;;;;49.15;17.48;;;4.00;80.80;;;;;;4164414;28;20089;-83
2022/01/26 05:27:47;;;;;;;47.05;16.60;;;4.00;80.90;;;;;;4156114;28;20053;-83
2022/01/26 05:29:48;;;;;;;43.20;14.38;;;4.00;80.90;;;;;;4156973;28;20134;-83
2022/01/26 05:31:49;;;;;;;42.50;15.82;;;4.00;81.70;;;;;;4155310;28;20030;-84
2022/01/26 05:33:49;;;;;;;43.38;14.50;;;4.00;80.90;;;;;;4157185;28;20022;-83
2022/01/26 05:35:51;;;;;;;36.80;14.65;;;4.00;81.00;;;;;;4154563;28;20025;-84
2022/01/26 05:37:51;;;;;;;37.47;15.35;;;4.00;80.90;;;;;;4156404;28;20017;-83
2022/01/26 05:39:52;;;;;;;39.67;15.68;;;4.00;80.90;;;;;;4154011;28;20089;-83
2022/01/26 05:41:52;;;;;;;44.17;15.23;;;4.00;81.00;;;;;;4152000;28;20080;-83
2022/01/26 05:43:53;;;;;;;37.80;14.55;;;4.00;81.70;;;;;;4156849;28;20771;-84
2022/01/26 05:45:58;;;;;;;38.22;14.68;;;4.00;80.90;;;;;;4159035;28;20037;-83
2022/01/26 05:48:02;;;;;;;40.97;16.10;;;4.00;81.00;;;;;;4143416;28;20715;-84
2022/01/26 05:50:03;;;;;;;45.83;15.02;;;4.00;81.00;;;;;;4139954;28;20038;-84
2022/01/26 05:52:04;;;;;;;50.28;16.25;;;4.00;81.20;;;;;;4160348;28;20109;-84
2022/01/26 05:54:05;;;;;;;45.50;16.00;;;3.90;81.10;;;;;;4144793;28;20030;-85
2022/01/26 05:56:06;;;;;;;39.80;15.35;;;4.00;81.20;;;;;;4143158;28;20046;-84
2022/01/26 05:58:06;;;;;;;41.05;15.13;;;3.90;82.00;;;;;;4160556;28;20032;-84
2022/01/26 06:00:08;;;;;;;37.08;13.80;;;3.90;81.30;;;;;;4153359;28;20028;-84
2022/01/26 06:02:08;;;;;;;36.30;14.32;;;3.90;81.30;;;;;;4161868;28;20026;-83
2022/01/26 06:04:09;;;;;;;32.55;13.98;;;3.90;81.30;;;;;;4161715;28;20107;-84
2022/01/26 06:06:09;;;;;;;38.00;14.55;;;3.90;81.40;;;;;;4160578;28;20040;-83
2022/01/26 06:08:10;;;;;;;40.35;14.93;;;3.90;81.30;;;;;;4157504;28;20033;-83
2022/01/26 06:10:10;;;;;;;37.67;14.48;;;3.90;81.40;;;;;;4140987;28;20470;-83
2022/01/26 06:12:11;;;;;;;40.20;14.80;;;3.90;81.40;;;;;;4157745;28;20033;-83
2022/01/26 06:14:12;;;;;;;45.67;16.52;;;3.90;81.40;;;;;;4156564;28;20040;-83
2022/01/26 06:16:13;;;;;;;39.60;15.63;;;3.90;81.50;;;;;;4141336;28;20264;-84
2022/01/26 06:18:14;;;;;;;43.72;16.27;;;3.90;81.50;;;;;;4157818;28;20878;-84
2022/01/26 06:20:15;;;;;;;44.60;16.38;;;3.90;81.60;;;;;;4126484;28;20058;-84
2022/01/26 06:22:15;;;;;;;43.97;17.35;;;3.90;81.70;;;;;;4161865;28;20029;-84
2022/01/26 06:24:16;;;;;;;44.53;16.50;;;3.90;81.60;;;;;;4159048;28;20085;-83
2022/01/26 06:26:16;;;;;;;42.58;16.60;;;3.90;81.70;;;;;;4160380;28;20025;-83
2022/01/26 06:28:17;;;;;;;41.67;15.70;;;3.90;81.70;;;;;;4160427;28;20029;-84
2022/01/26 06:30:18;;;;;;;59.42;17.63;;;3.90;81.70;;;;;;4126960;28;20065;-84
2022/01/26 06:32:18;;;;;;;56.65;17.38;;;3.90;81.70;;;;;;4158927;28;20534;-84
2022/01/26 06:34:20;;;;;;;57.15;17.90;;;3.90;81.80;;;;;;4170414;28;20032;-84
2022/01/26 06:36:21;;;;;;;45.95;17.08;;;3.90;81.90;;;;;;4165244;28;20087;-83
2022/01/26 06:38:24;;;;;;;51.78;18.30;;;3.90;81.90;;;;;;4144494;28;20053;-83
2022/01/26 06:40:25;;;;;;;43.47;16.98;;;3.90;82.00;;;;;;4158148;28;20383;-83
2022/01/26 06:42:30;;;;;;;45.58;17.50;;;3.90;82.10;;;;;;4163012;28;20025;-83
2022/01/26 06:44:36;;;;;;;42.03;16.20;;;3.90;82.00;;;;;;4160582;28;20450;-83
2022/01/26 06:47:32;;;;;;;64.03;17.50;;;3.90;82.00;;;;;;4157655;28;20064;-83
2022/01/26 06:51:00;;;;;;;48.78;17.55;;;3.90;81.90;;;;;;4156665;28;20446;-83
2022/01/26 06:53:01;;;;;;;54.80;20.58;;;3.90;81.90;;;;;;4146759;28;20447;-83
2022/01/26 06:55:04;;;;;;;57.15;20.50;;;3.90;81.90;;;;;;4154375;28;20029;-83
2022/01/26 06:57:04;;;;;;;53.42;19.25;;;3.90;81.90;;;;;;4165710;28;20025;-83
2022/01/26 06:59:05;;;;;;;49.47;19.10;;;3.90;82.00;;;;;;4174482;28;20517;-83
2022/01/26 07:01:06;;;;;;;53.25;20.73;;;3.90;81.80;;;;;;4163026;28;20033;-84
2022/01/26 07:03:06;;;;;;;48.67;19.40;;;3.90;81.80;;;;;;4163693;28;20172;-84
2022/01/26 07:05:08;;;;;;;52.53;19.30;;;3.90;81.90;;;;;;4161319;28;20045;-84
2022/01/26 07:07:09;;;;;;;50.05;18.60;;;3.90;81.80;;;;;;4161095;28;20029;-83
2022/01/26 07:09:09;;;;;;;56.38;21.98;;;3.90;81.30;;;;;;4155745;28;20483;-84
2022/01/26 07:11:10;;;;;;;51.75;19.58;;;3.90;81.70;;;;;;4161058;28;20033;-84
2022/01/26 07:13:11;;;;;;;60.95;21.77;;;3.90;81.60;;;;;;4162333;28;20033;-84
2022/01/26 07:19:55;;;;;;;57.95;20.13;;;3.90;81.70;;;;;;4158892;28;20052;-83
2022/01/26 07:21:56;;;;;;;50.90;20.35;;;3.90;81.50;;;;;;4162681;28;20038;-84
2022/01/26 07:23:58;;;;;;;54.08;21.42;;;3.90;81.60;;;;;;4161550;28;20059;-83
2022/01/26 07:25:59;;;;;;;56.70;21.40;;;3.90;81.50;;;;;;4161357;28;20115;-83
2022/01/26 07:28:03;;;;;;;54.20;20.20;;;3.90;81.50;;;;;;4159824;28;20068;-84
2022/01/26 07:30:06;;;;;;;56.03;20.50;;;3.90;81.60;;;;;;4139955;28;20033;-83
2022/01/26 07:32:07;;;;;;;66.95;22.95;;;3.90;81.60;;;;;;4163514;28;20076;-83
2022/01/26 07:34:12;;;;;;;57.72;22.63;;;3.90;82.20;;;;;;4168376;28;20025;-84
2022/01/26 07:36:13;;;;;;;62.30;21.98;;;3.90;81.50;;;;;;4141026;28;20152;-84
2022/01/26 07:38:14;;;;;;;59.00;22.77;;;3.90;81.60;;;;;;4159411;28;20053;-83
2022/01/26 07:40:15;;;;;;;57.60;21.00;;;3.90;81.70;;;;;;4162715;28;20030;-83
2022/01/26 07:42:16;;;;;;;56.53;22.27;;;3.90;81.80;;;;;;4158270;28;20396;-83
2022/01/26 07:44:17;;;;;;;55.67;20.70;;;3.90;81.70;;;;;;4157793;28;20053;-83
2022/01/26 07:46:18;;;;;;;61.88;21.30;;;3.90;81.70;;;;;;4158021;28;20033;-83
2022/01/26 07:48:18;;;;;;;59.65;20.95;;;3.90;81.70;;;;;;4159833;28;20043;-84
2022/01/26 07:50:20;;;;;;;59.72;21.15;;;3.90;81.80;;;;;;4161235;28;20041;-85
2022/01/26 07:52:21;;;;;;;56.67;20.55;;;3.90;81.80;;;;;;4163013;28;20497;-84
2022/01/26 07:54:23;;;;;;;59.50;20.15;;;3.90;82.60;;;;;;4156552;28;20030;-83
2022/01/26 07:56:24;;;;;;;54.65;19.73;;;3.90;81.90;;;;;;4161122;28;20175;-83
2022/01/26 07:58:25;;;;;;;58.00;20.55;;;3.90;81.90;;;;;;4157241;28;20034;-83
2022/01/26 08:00:25;;;;;;;54.60;20.17;;;3.90;81.90;;;;;;4159073;28;20025;-83
2022/01/26 08:02:26;;;;;;;51.67;19.92;;;3.90;82.00;;;;;;4149638;28;20030;-84
2022/01/26 08:04:27;;;;;;;48.05;18.40;;;3.90;82.10;;;;;;4153395;28;20386;-84
2022/01/26 08:06:27;;;;;;;51.90;19.95;;;3.90;82.10;;;;;;4155674;28;20044;-84
2022/01/26 08:08:28;;;;;;;57.55;20.15;;;3.90;82.10;;;;;;4164182;28;20076;-84
2022/01/26 08:10:29;;;;;;;50.67;19.23;;;3.90;82.20;;;;;;4173214;28;20430;-84
2022/01/26 08:12:29;;;;;;;57.67;20.90;;;3.90;82.20;;;;;;4141290;28;20029;-84
2022/01/26 08:14:30;;;;;;;54.58;19.67;;;3.90;82.20;;;;;;4140948;28;20136;-85
2022/01/26 08:16:31;;;;;;;52.97;18.80;;;3.90;82.20;;;;;;4153646;28;20155;-84
2022/01/26 08:18:31;;;;;;;58.13;20.00;;;3.90;82.30;;;;;;4140801;28;20612;-84
2022/01/26 08:20:33;;;;;;;60.80;19.85;;;3.90;82.30;;;;;;4158934;28;20044;-84
2022/01/26 08:22:34;;;;;;;61.38;21.73;;;3.90;82.50;;;;;;4151270;28;20693;-84
2022/01/26 08:24:37;;;;;;;56.00;18.42;;;3.90;82.60;;;;;;4161026;28;20037;-84
2022/01/26 08:26:40;;;;;;;57.10;19.05;;;3.90;82.70;;;;;;4166241;28;20387;-84
2022/01/26 08:28:48;;;;;;;60.90;20.10;;;3.90;82.70;;;;;;4159508;28;20029;-84
2022/01/26 08:30:49;;;;;;;61.10;19.02;;;3.90;82.80;;;;;;4154209;28;20048;-84
2022/01/26 08:32:50;;;;;;;53.10;17.67;;;3.90;82.90;;;;;;4162130;28;20116;-84
2022/01/26 08:34:50;;;;;;;48.60;17.00;;;3.90;83.10;;;;;;4162059;28;20049;-84
2022/01/26 08:36:51;;;;;;;52.00;17.17;;;3.90;83.20;;;;;;4141668;28;20033;-83
2022/01/26 08:38:51;;;;;;;52.60;18.35;;;3.90;83.20;;;;;;4158458;28;20033;-85
2022/01/26 08:40:52;;;;;;;52.45;18.48;;;3.90;83.30;;;;;;4141975;28;20059;-84
2022/01/26 08:42:53;;;;;;;61.83;18.73;;;3.90;83.50;;;;;;4118841;28;20372;-84
2022/01/26 08:44:54;;;;;;;52.72;17.33;;;3.90;83.50;;;;;;4156049;28;20037;-84
2022/01/26 08:46:54;;;;;;;51.78;18.92;;;3.90;83.60;;;;;;4154879;28;20391;-84
2022/01/26 08:48:55;;;;;;;59.67;18.05;;;3.90;83.60;;;;;;4137210;28;20034;-83
2022/01/26 08:50:56;;;;;;;52.15;18.52;;;3.90;83.60;;;;;;4153840;28;20034;-83
2022/01/26 08:52:56;;;;;;;62.78;18.92;;;3.90;84.40;;;;;;4151203;28;20025;-84
2022/01/26 08:54:57;;;;;;;50.30;18.15;;;4.00;83.70;;;;;;4125049;28;20431;-84
2022/01/26 08:56:57;;;;;;;48.20;18.20;;;4.00;83.70;;;;;;4123475;28;20085;-84
2022/01/26 08:58:58;;;;;;;56.35;20.30;;;4.00;83.60;;;;;;4123670;28;20100;-83
2022/01/26 09:00:59;;;;;;;56.38;19.05;;;4.00;83.60;;;;;;4155546;28;20072;-83
2022/01/26 09:03:00;;;;;;;60.60;19.15;;;4.00;83.60;;;;;;4160103;28;20075;-83
2022/01/26 09:05:00;;;;;;;61.60;20.00;;;4.00;83.50;;;;;;4127361;28;20041;-83
2022/01/26 09:07:03;;;;;;;59.30;19.95;;;4.00;83.40;;;;;;4157227;28;20116;-83
2022/01/26 09:09:06;;;;;;;63.07;18.17;;;4.00;83.30;;;;;;4126363;28;20042;-83
2022/01/26 09:11:08;;;;;;;59.83;21.00;;;4.10;83.40;;;;;;4157321;28;20044;-83
2022/01/26 09:13:09;;;;;;;78.65;22.33;;;4.10;83.30;;;;;;4142189;28;20399;-83
2022/01/26 09:15:10;;;;;;;68.00;20.52;;;4.10;83.20;;;;;;4158323;28;20025;-83
2022/01/26 09:17:11;;;;;;;61.20;20.55;;;4.10;83.20;;;;;;4140591;28;20307;-84
2022/01/26 09:19:27;;;;;;;58.15;19.73;;;4.10;83.10;;;;;;4144676;28;20037;-83
2022/01/26 09:21:27;;;;;;;84.15;23.30;;;4.10;83.00;;;;;;4146810;28;20030;-83
2022/01/26 09:23:28;;;;;;;67.07;21.40;;;4.10;82.80;;;;;;4128384;28;20565;-83
2022/01/26 09:25:28;;;;;;;77.63;20.48;;;4.10;82.90;;;;;;4159613;28;20040;-83
2022/01/26 09:27:29;;;;;;;70.43;19.83;;;4.10;82.90;;;;;;4163665;28;20040;-83
2022/01/26 09:29:30;;;;;;;65.88;19.45;;;4.20;83.00;;;;;;4155628;28;20114;-83
2022/01/26 09:31:30;;;;;;;60.10;20.23;;;4.20;82.90;;;;;;4143087;28;20038;-83
2022/01/26 09:33:31;;;;;;;64.78;19.88;;;4.20;82.90;;;;;;4158264;28;20029;-83
2022/01/26 09:35:31;;;;;;;63.33;20.30;;;4.20;82.80;;;;;;4142472;28;20943;-83
2022/01/26 09:37:32;;;;;;;75.93;21.30;;;4.20;82.80;;;;;;4141959;28;20044;-83
2022/01/26 09:39:33;;;;;;;65.82;20.65;;;4.20;82.80;;;;;;4135632;28;20045;-83
2022/01/26 09:41:34;;;;;;;58.97;19.33;;;4.20;82.60;;;;;;4139637;28;20030;-83
2022/01/26 09:43:35;;;;;;;84.50;20.40;;;4.20;82.60;;;;;;4173837;28;20112;-83
2022/01/26 09:45:36;;;;;;;69.55;19.85;;;4.20;82.60;;;;;;4151161;28;20037;-83
2022/01/26 09:47:37;;;;;;;63.05;21.33;;;4.20;82.50;;;;;;4162802;28;20180;-83
2022/01/26 09:49:38;;;;;;;60.55;20.77;;;4.30;82.50;;;;;;4143219;28;20044;-83
2022/01/26 09:51:41;;;;;;;66.50;21.27;;;4.30;82.50;;;;;;4141814;28;20058;-83
2022/01/26 09:53:42;;;;;;;60.40;20.80;;;4.30;82.40;;;;;;4142584;28;20084;-83
2022/01/26 09:55:43;;;;;;;79.32;22.65;;;4.30;82.30;;;;;;4126948;28;20038;-83
2022/01/26 09:57:44;;;;;;;68.22;20.20;;;4.30;82.20;;;;;;4157044;28;20130;-83
2022/01/26 09:59:45;;;;;;;66.28;19.70;;;4.30;82.20;;;;;;4138892;28;20119;-81
2022/01/26 10:01:47;;;;;;;69.40;19.75;;;4.30;82.20;;;;;;4143673;28;20033;-81
2022/01/26 10:03:50;;;;;;;62.05;17.58;;;4.30;82.00;;;;;;4154487;28;20093;-81
2022/01/26 10:05:50;;;;;;;75.25;19.15;;;4.30;82.00;;;;;;4141087;28;20044;-81
2022/01/26 10:19:01;;;;;;;71.15;19.95;;;4.40;81.40;;;;;;4145894;28;20406;-81
2022/01/26 10:21:03;;;;;;;60.83;17.98;;;4.40;81.30;;;;;;4126221;28;20033;-81
2022/01/26 10:23:07;;;;;;;57.22;18.40;;;4.50;81.30;;;;;;4142884;28;20026;-81
2022/01/26 10:25:12;;;;;;;73.47;19.08;;;4.50;81.20;;;;;;4125327;28;20030;-81
2022/01/26 10:27:13;;;;;;;66.03;18.55;;;4.50;81.20;;;;;;4159076;28;20026;-81
2022/01/26 10:29:15;;;;;;;57.78;17.23;;;4.50;81.00;;;;;;4153309;28;20030;-82
2022/01/26 10:31:19;;;;;;;64.22;17.63;;;4.50;81.00;;;;;;4143448;28;20030;-81
2022/01/26 10:33:20;;;;;;;48.25;16.20;;;4.50;81.10;;;;;;4160245;28;20068;-81
2022/01/26 10:35:20;;;;;;;57.53;15.93;;;4.50;81.10;;;;;;4137060;28;20051;-81
2022/01/26 10:37:21;;;;;;;63.42;16.70;;;4.50;81.00;;;;;;4147710;28;20053;-81
2022/01/26 10:39:29;;;;;;;58.70;14.77;;;4.50;81.00;;;;;;4141874;28;20075;-81
2022/01/26 10:41:29;;;;;;;58.78;14.82;;;4.60;81.10;;;;;;4152020;28;20068;-81
2022/01/26 10:43:32;;;;;;;56.20;15.10;;;4.50;81.10;;;;;;4154438;28;20037;-81
2022/01/26 10:45:54;;;;;;;58.00;14.52;;;4.60;81.10;;;;;;4119403;28;20034;-81
2022/01/26 10:47:55;;;;;;;41.92;13.90;;;4.60;81.20;;;;;;4140555;28;20683;-81
2022/01/26 10:50:08;;;;;;;50.80;14.20;;;4.60;81.30;;;;;;4144100;28;20030;-81
2022/01/26 10:52:18;;;;;;;52.70;14.30;;;4.60;81.40;;;;;;4146675;28;20030;-81
2022/01/26 10:54:35;;;;;;;47.13;13.00;;;4.60;81.50;;;;;;4145093;28;20065;-81
2022/01/26 10:56:36;;;;;;;50.45;12.65;;;4.60;81.50;;;;;;4142627;28;20041;-81
2022/01/26 10:58:36;;;;;;;48.85;13.98;;;4.70;81.60;;;;;;4143501;28;20029;-81
2022/01/26 11:00:41;;;;;;;58.35;13.20;;;4.70;81.50;;;;;;4144015;28;20034;-81
2022/01/26 11:02:47;;;;;;;58.67;13.30;;;4.70;81.50;;;;;;4160981;28;20658;-81
2022/01/26 11:04:48;;;;;;;44.78;11.95;;;4.70;81.50;;;;;;4164338;28;20029;-81
2022/01/26 11:06:52;;;;;;;57.13;13.90;;;4.70;81.50;;;;;;4142231;28;20518;-81
2022/01/26 11:08:53;;;;;;;46.63;13.48;;;4.70;81.50;;;;;;4155892;28;20093;-81
2022/01/26 11:10:53;;;;;;;44.13;12.30;;;4.80;81.50;;;;;;4145326;28;20080;-81
2022/01/26 11:12:54;;;;;;;44.78;12.38;;;4.70;81.50;;;;;;4126859;28;20058;-81
2022/01/26 11:15:03;;;;;;;46.97;12.82;;;4.80;81.50;;;;;;4161078;28;20077;-81
2022/01/26 11:17:04;;;;;;;49.78;11.98;;;4.80;81.60;;;;;;4143282;28;20037;-81
2022/01/26 11:19:12;;;;;;;44.70;12.05;;;4.70;81.70;;;;;;4163913;28;20033;-81
2022/01/26 11:21:34;;;;;;;41.67;12.18;;;4.80;81.80;;;;;;4144513;28;20518;-81
2022/01/26 11:23:36;;;;;;;47.22;11.50;;;4.80;81.90;;;;;;4162932;28;20029;-81
2022/01/26 11:25:44;;;;;;;34.90;10.57;;;4.80;81.90;;;;;;4141725;28;20439;-81
2022/01/26 11:27:45;;;;;;;34.60;10.70;;;4.80;82.00;;;;;;4154928;28;20540;-81
2022/01/26 11:29:49;;;;;;;39.50;10.45;;;4.80;82.20;;;;;;4160379;28;20025;-81
2022/01/26 11:32:09;;;;;;;36.05;10.93;;;4.80;82.20;;;;;;4113805;28;20042;-82
2022/01/26 11:34:11;;;;;;;39.55;9.60;;;4.80;82.30;;;;;;4163005;28;20103;-81
2022/01/26 11:36:16;;;;;;;38.63;9.27;;;4.80;82.30;;;;;;4143903;28;20471;-81
2022/01/26 11:45:35;;;;;;;22.00;7.95;;;4.80;82.40;;;;;;4158536;28;20021;-81
2022/01/26 11:47:37;;;;;;;32.65;8.07;;;4.90;82.60;;;;;;4158700;28;20450;-81
2022/01/26 11:49:39;;;;;;;30.55;8.82;;;4.90;82.60;;;;;;4143012;28;20045;-81
2022/01/26 11:51:44;;;;;;;27.05;7.57;;;4.90;82.60;;;;;;4125127;28;20046;-81
2022/01/26 11:53:45;;;;;;;34.33;8.35;;;4.90;82.60;;;;;;4152833;28;20037;-82
2022/01/26 11:55:48;;;;;;;35.15;11.13;;;4.90;82.70;;;;;;4156970;28;20040;-82
2022/01/26 11:57:52;;;;;;;34.03;8.45;;;4.90;82.70;;;;;;4138412;28;20021;-82
2022/01/26 12:00:02;;;;;;;31.38;7.97;;;4.90;82.70;;;;;;4158931;28;20545;-82
2022/01/26 12:02:19;;;;;;;23.67;7.95;;;4.90;82.80;;;;;;4158727;28;20144;-82
2022/01/26 12:04:20;;;;;;;25.20;7.72;;;4.90;82.90;;;;;;4159288;28;20044;-82
2022/01/26 12:06:39;;;;;;;29.02;8.68;;;4.90;82.90;;;;;;4144983;28;20057;-82
2022/01/26 12:08:40;;;;;;;30.23;8.77;;;4.90;83.00;;;;;;4127753;28;20100;-82
2022/01/26 12:10:43;;;;;;;35.50;8.35;;;4.90;83.00;;;;;;4126889;28;20042;-82
2022/01/26 12:12:44;;;;;;;30.40;8.63;;;4.90;83.10;;;;;;4136926;28;20032;-82
2022/01/26 12:15:00;;;;;;;31.98;8.35;;;4.90;83.10;;;;;;4151241;28;20120;-82
2022/01/26 12:17:04;;;;;;;33.88;9.05;;;4.90;83.20;;;;;;4155041;28;20029;-82
2022/01/26 12:19:25;;;;;;;31.17;8.68;;;5.00;83.40;;;;;;4145686;28;20022;-82
2022/01/26 12:37:41;;;;;;;36.78;10.18;;;5.00;84.00;;;;;;4164731;28;20016;-82
2022/01/26 12:42:23;;;;;;;34.08;10.10;;;5.10;84.10;;;;;;4149860;28;20029;-83
2022/01/26 12:44:24;;;;;;;31.50;8.70;;;5.10;84.10;;;;;;4144748;28;20088;-82